Aeroporto :
LOGIN :

Iscrizione | Disclaimer

   EN    FR    IT 

 










Sommario :    VFR   VFR Marginale   IFR   IFR Intensivo   IFR Molto Intensivo
Visibilità : 
Base nubi : 
>= 8 km
>= 3000ft
5 / 8 km
1000 / 3000 ft
1500m / 5 km
500 / 1000 ft
800 / 1500m
200 / 500 ft
< 800m
< 200 ft
Simboli :   Temporali  Nebbia  Neve Forte  Precipitazioni Forti  Vento > 20 kt
SIGMETs :   Varie  Temporali  Ghiacco  Turbolenza  Onda orograficha  Ceneri Vulcaniche






- Altitudine del aeroporto : 364 ft


LFAQ - Albert Bray

ULTIMO METAR :
  • 191500Z AUTO 08002KT 9999 BKN045 08/03 Q1018 NOSIG

METARs OBSOLETI :
  • 191430Z AUTO VRB02KT 9999 BKN046 09/04 Q1018 NOSIG
  • 191400Z AUTO VRB02KT 9999 FEW043 09/03 Q1017 NOSIG
  • 191330Z AUTO 24003KT 200V280 9999 SCT041 09/03 Q1018 NOSIG
  • 191300Z AUTO VRB03KT 9999 FEW016 09/05 Q1018 NOSIG
  • 191230Z AUTO 20004KT 170V230 CAVOK 08/04 Q1018 NOSIG

TAF TAF LFAQ
Valido dal 19 a 15 ore il 20 a 00 ore UTC


191400Z 1915/1924 15005KT 9999 SCT040
BECMG 1921/1924 3000 BR OVC003
PROB30
TEMPO 1921/1924 0500 FG VV///



MetMap, La meteo Aeronautica in un colpo d'occhio ! - Copyright ORBIFLY Dicembre 2007 - Disclaimer

ORBIFLY MET'MAP TEAM :

Programmazione e sviluppo : Alexandra Zaïnal
Concezione e sviluppo : Baudouin d'Aumeries
Co-Programmazione e sviluppo : Marc-Olivier Méhu
Supporto tecnico e logistico : Manuel Goepfert
Aiuto per la traduzione : Arnaldo La Scala

Contatto : metmap@orbifly.com




FONTI E CREDITI :

   NOAA